createdAt,value
2022-10-02T00:00:07.191Z,0.00
2022-10-02T00:01:07.209Z,0.00
2022-10-02T00:02:08.708Z,0.00
2022-10-02T00:03:07.148Z,0.00
2022-10-02T00:04:08.017Z,0.00
2022-10-02T00:05:11.173Z,0.00
2022-10-02T00:06:07.119Z,0.00
2022-10-02T00:07:07.106Z,0.00
2022-10-02T00:08:07.117Z,0.00
2022-10-02T00:09:07.898Z,0.00
2022-10-02T00:10:07.186Z,0.00
2022-10-02T00:11:07.070Z,0.00
2022-10-02T00:12:07.061Z,0.00
2022-10-02T00:13:13.349Z,0.00
2022-10-02T00:14:07.925Z,0.00
2022-10-02T00:17:34.147Z,0.00
2022-10-02T00:18:34.720Z,0.00
2022-10-02T00:19:34.717Z,0.00
2022-10-02T00:20:34.689Z,0.00
2022-10-02T00:21:35.014Z,0.00
2022-10-02T00:22:34.778Z,0.00
2022-10-02T00:23:36.039Z,0.00
2022-10-02T00:24:34.611Z,0.00
2022-10-02T00:25:35.524Z,0.00
2022-10-02T00:26:35.187Z,0.00
2022-10-02T00:27:34.651Z,0.00
2022-10-02T00:28:36.754Z,0.00
2022-10-02T00:29:36.221Z,0.00
2022-10-02T00:30:34.580Z,0.00
2022-10-02T00:31:34.618Z,0.00
2022-10-02T00:32:34.568Z,0.00
2022-10-02T00:33:34.581Z,0.00
2022-10-02T00:34:35.579Z,0.00
2022-10-02T00:35:36.344Z,0.00
2022-10-02T00:36:38.845Z,0.00
2022-10-02T00:37:35.329Z,0.00
2022-10-02T00:38:34.761Z,0.00
2022-10-02T00:39:34.537Z,0.00
2022-10-02T00:40:34.889Z,0.00
2022-10-02T00:41:35.248Z,0.00
2022-10-02T00:42:35.234Z,0.00
2022-10-02T00:43:35.393Z,0.00
2022-10-02T00:44:34.912Z,0.00
2022-10-02T00:45:34.523Z,0.00
2022-10-02T00:46:36.526Z,0.00
2022-10-02T00:47:34.395Z,0.00
2022-10-02T00:48:34.447Z,0.00
2022-10-02T00:49:34.443Z,0.00
2022-10-02T00:50:34.407Z,0.00
2022-10-02T00:51:34.355Z,0.00
2022-10-02T00:52:34.473Z,0.00
2022-10-02T00:53:35.177Z,0.00
2022-10-02T00:55:53.670Z,0.00
2022-10-02T01:01:50.114Z,0.00
2022-10-02T01:02:51.017Z,0.00
2022-10-02T01:03:51.017Z,0.00
2022-10-02T01:04:52.390Z,0.00
2022-10-02T01:05:52.381Z,0.00
2022-10-02T01:06:51.926Z,0.00
2022-10-02T01:07:50.969Z,0.00
2022-10-02T01:08:50.984Z,0.00
2022-10-02T01:09:51.236Z,0.00
2022-10-02T01:10:50.925Z,0.00
2022-10-02T01:11:51.207Z,0.00
2022-10-02T01:12:51.273Z,0.00
2022-10-02T01:13:50.951Z,0.00
2022-10-02T01:14:51.202Z,0.00
2022-10-02T01:15:50.876Z,0.00
2022-10-02T01:16:50.897Z,0.00
2022-10-02T01:17:50.859Z,0.00
2022-10-02T01:18:52.391Z,0.00
2022-10-02T01:19:52.711Z,0.00
2022-10-02T01:20:50.806Z,0.00
2022-10-02T01:21:51.748Z,0.00
2022-10-02T01:22:50.787Z,0.00
2022-10-02T01:23:50.705Z,0.00
2022-10-02T01:24:50.793Z,0.00
2022-10-02T01:25:50.673Z,0.00
2022-10-02T01:26:50.666Z,0.00
2022-10-02T01:27:50.681Z,0.00
2022-10-02T01:28:50.642Z,0.00
2022-10-02T01:29:50.651Z,0.00
2022-10-02T01:30:50.692Z,0.00
2022-10-02T01:31:50.688Z,0.00
2022-10-02T01:32:50.601Z,0.00
2022-10-02T01:33:50.574Z,0.00
2022-10-02T01:34:50.563Z,0.00
2022-10-02T01:35:50.584Z,0.00
2022-10-02T01:36:50.599Z,0.00
2022-10-02T01:37:50.552Z,0.00
2022-10-02T01:38:50.534Z,0.00
2022-10-02T01:39:50.530Z,0.00
2022-10-02T01:40:50.604Z,0.00
2022-10-02T01:41:50.618Z,0.00
2022-10-02T01:42:50.573Z,0.00
2022-10-02T01:43:50.659Z,0.00
2022-10-02T01:44:50.608Z,0.00
2022-10-02T01:45:50.575Z,0.00
2022-10-02T01:46:50.573Z,0.00
2022-10-02T01:47:50.555Z,0.00
2022-10-02T01:48:50.672Z,0.00
2022-10-02T01:49:50.500Z,0.00
2022-10-02T01:50:50.518Z,0.00
2022-10-02T01:51:50.412Z,0.00
2022-10-02T01:52:50.446Z,0.00
2022-10-02T01:53:50.584Z,0.00
2022-10-02T01:54:50.533Z,0.00
2022-10-02T01:55:51.454Z,0.00
2022-10-02T01:56:50.345Z,0.00
2022-10-02T01:57:50.348Z,0.00
2022-10-02T01:58:50.381Z,0.00
2022-10-02T01:59:50.420Z,0.00
2022-10-02T02:00:50.584Z,0.00
2022-10-02T02:01:50.355Z,0.00
2022-10-02T02:02:50.365Z,0.00
2022-10-02T02:03:53.271Z,0.00
2022-10-02T02:04:50.374Z,0.00
2022-10-02T02:05:50.747Z,0.00
2022-10-02T02:06:50.551Z,0.00
2022-10-02T02:07:50.943Z,0.00
2022-10-02T02:08:50.298Z,0.00
2022-10-02T02:09:50.221Z,0.00
2022-10-02T02:10:50.786Z,0.00
2022-10-02T02:11:50.157Z,0.00
2022-10-02T02:12:50.308Z,0.00
2022-10-02T02:13:50.965Z,0.00
2022-10-02T02:14:50.295Z,0.00
2022-10-02T02:15:50.284Z,0.00
2022-10-02T02:16:50.334Z,0.00
2022-10-02T02:17:50.566Z,0.00
2022-10-02T02:18:50.678Z,0.00
2022-10-02T02:19:50.224Z,0.00
2022-10-02T02:20:50.164Z,0.00
2022-10-02T02:21:50.164Z,0.00
2022-10-02T02:22:50.260Z,0.00
2022-10-02T02:23:50.614Z,0.00
2022-10-02T02:24:50.582Z,0.00
2022-10-02T02:25:50.405Z,0.00
2022-10-02T02:26:50.333Z,0.00
2022-10-02T02:27:50.543Z,0.00
2022-10-02T02:28:50.353Z,0.00
2022-10-02T02:29:50.101Z,0.00
2022-10-02T02:30:50.372Z,0.00
2022-10-02T02:31:50.389Z,0.00
2022-10-02T02:32:50.086Z,0.00
2022-10-02T02:33:52.046Z,0.00
2022-10-02T02:34:50.279Z,0.00
2022-10-02T02:35:50.299Z,0.00
2022-10-02T02:36:50.212Z,0.00
2022-10-02T02:37:50.006Z,0.00
2022-10-02T02:38:50.126Z,0.00
2022-10-02T02:39:50.087Z,0.00
2022-10-02T02:40:50.149Z,0.00
2022-10-02T02:41:49.886Z,0.00
2022-10-02T02:42:50.300Z,0.00
2022-10-02T02:43:49.882Z,0.00
2022-10-02T02:44:49.911Z,0.00
2022-10-02T02:45:50.504Z,0.00
2022-10-02T02:46:49.890Z,0.00
2022-10-02T02:47:49.835Z,0.00
2022-10-02T02:48:49.908Z,0.00
2022-10-02T02:49:49.746Z,0.00
2022-10-02T02:50:49.714Z,0.00
2022-10-02T02:51:49.899Z,0.00
2022-10-02T02:52:49.792Z,0.00
2022-10-02T02:53:49.806Z,0.00
2022-10-02T02:54:49.822Z,0.00
2022-10-02T02:55:49.748Z,0.00
2022-10-02T02:56:49.689Z,0.00
2022-10-02T02:57:49.773Z,0.00
2022-10-02T02:58:49.763Z,0.00
2022-10-02T02:59:49.666Z,0.00
2022-10-02T03:00:49.931Z,0.00
2022-10-02T03:01:49.779Z,0.00
2022-10-02T03:02:49.666Z,0.00
2022-10-02T03:03:49.693Z,0.00
2022-10-02T03:04:49.722Z,0.00
2022-10-02T03:05:49.577Z,0.00
2022-10-02T03:06:49.584Z,0.00
2022-10-02T03:07:49.613Z,0.00
2022-10-02T03:08:49.687Z,0.00
2022-10-02T03:09:49.506Z,0.00
2022-10-02T03:10:49.579Z,0.00
2022-10-02T03:11:49.475Z,0.00
2022-10-02T03:12:49.514Z,0.00
2022-10-02T03:13:49.463Z,0.00
2022-10-02T03:14:49.443Z,0.00
2022-10-02T03:15:49.495Z,0.00
2022-10-02T03:16:49.433Z,0.00
2022-10-02T03:17:49.404Z,0.00
2022-10-02T03:18:49.470Z,0.00
2022-10-02T03:19:49.388Z,0.00
2022-10-02T03:20:49.394Z,0.00
2022-10-02T03:21:49.388Z,0.00
2022-10-02T03:22:49.389Z,0.00
2022-10-02T03:23:49.352Z,0.00
2022-10-02T03:24:49.879Z,0.00
2022-10-02T03:25:49.538Z,0.00
2022-10-02T03:26:49.808Z,0.00
2022-10-02T03:27:49.386Z,0.00
2022-10-02T03:28:57.188Z,0.00
2022-10-02T03:29:50.166Z,0.00
2022-10-02T03:30:49.406Z,0.00
2022-10-02T03:31:49.308Z,0.00
2022-10-02T03:32:49.249Z,0.00
2022-10-02T03:33:49.263Z,0.00
2022-10-02T03:34:49.258Z,0.00
2022-10-02T03:35:49.210Z,0.00
2022-10-02T03:36:49.820Z,0.00
2022-10-02T03:37:49.191Z,0.00
2022-10-02T03:39:00.699Z,0.00
2022-10-02T03:39:49.816Z,0.00
2022-10-02T03:40:49.171Z,0.00
2022-10-02T03:41:49.855Z,0.00
2022-10-02T03:42:49.177Z,0.00
2022-10-02T03:43:49.124Z,0.00
2022-10-02T03:44:49.126Z,0.00
2022-10-02T03:45:51.739Z,0.00
2022-10-02T03:46:49.167Z,0.00
2022-10-02T03:47:49.076Z,0.00
2022-10-02T03:48:49.111Z,0.00
2022-10-02T03:49:49.054Z,0.00
2022-10-02T03:50:49.055Z,0.00
2022-10-02T03:51:49.036Z,0.00
2022-10-02T03:52:49.098Z,0.00
2022-10-02T03:53:48.998Z,0.00
2022-10-02T03:54:49.051Z,0.00
2022-10-02T03:55:49.670Z,0.00
2022-10-02T03:56:49.843Z,0.00
2022-10-02T03:57:48.979Z,0.00
2022-10-02T03:58:48.949Z,0.00
2022-10-02T03:59:48.954Z,0.00
2022-10-02T04:00:49.227Z,0.00
2022-10-02T04:01:49.396Z,0.00
2022-10-02T04:02:48.916Z,0.00
2022-10-02T04:03:48.969Z,0.00
2022-10-02T04:04:48.886Z,0.00
2022-10-02T04:05:48.885Z,0.00
2022-10-02T04:06:48.904Z,0.00
2022-10-02T04:07:52.600Z,0.00
2022-10-02T04:08:48.956Z,0.00
2022-10-02T04:09:48.865Z,0.00
2022-10-02T04:10:48.824Z,0.00
2022-10-02T04:11:48.804Z,0.00
2022-10-02T04:12:48.842Z,0.00
2022-10-02T04:13:48.774Z,0.00
2022-10-02T04:14:48.776Z,0.00
2022-10-02T04:15:49.931Z,0.00
2022-10-02T04:16:48.829Z,0.00
2022-10-02T04:17:49.134Z,0.00
2022-10-02T04:18:49.012Z,0.00
2022-10-02T04:19:48.751Z,0.00
2022-10-02T04:20:49.162Z,0.00
2022-10-02T04:21:48.965Z,0.00
2022-10-02T04:22:49.123Z,0.00
2022-10-02T04:23:48.686Z,0.00
2022-10-02T04:24:49.183Z,0.00
2022-10-02T04:25:49.133Z,0.00
2022-10-02T04:26:49.136Z,0.00
2022-10-02T04:27:49.031Z,0.00
2022-10-02T04:28:49.006Z,0.00
2022-10-02T04:29:49.039Z,0.00
2022-10-02T04:30:49.115Z,0.00
2022-10-02T04:31:48.904Z,0.00
2022-10-02T04:32:48.897Z,0.00
2022-10-02T04:33:49.046Z,0.00
2022-10-02T04:34:49.042Z,0.00
2022-10-02T04:35:49.828Z,0.00
2022-10-02T04:36:48.983Z,0.00
2022-10-02T04:37:50.682Z,0.00
2022-10-02T04:38:48.899Z,0.00
2022-10-02T04:39:48.928Z,0.00
2022-10-02T04:40:48.780Z,0.00
2022-10-02T04:41:48.821Z,0.00
2022-10-02T04:42:48.910Z,0.00
2022-10-02T04:43:48.962Z,0.00
2022-10-02T04:44:48.952Z,0.00
2022-10-02T04:45:49.207Z,0.00
2022-10-02T04:46:48.703Z,0.00
2022-10-02T04:47:48.655Z,0.00
2022-10-02T04:48:48.971Z,0.00
2022-10-02T04:49:48.810Z,0.00
2022-10-02T04:50:48.803Z,0.00
2022-10-02T04:51:48.836Z,0.00
2022-10-02T04:52:48.799Z,0.00
2022-10-02T04:53:48.769Z,0.00
2022-10-02T04:54:48.823Z,0.00
2022-10-02T04:55:48.713Z,0.00
2022-10-02T04:56:48.729Z,0.00
2022-10-02T04:57:48.832Z,0.00
2022-10-02T04:58:48.369Z,0.00
2022-10-02T04:59:48.761Z,0.00
2022-10-02T05:00:49.044Z,0.00
2022-10-02T05:01:48.399Z,4.00
2022-10-02T05:02:48.579Z,4.00
2022-10-02T05:03:48.373Z,4.00
2022-10-02T05:04:48.780Z,4.00
2022-10-02T05:05:48.670Z,4.00
2022-10-02T05:06:48.695Z,4.00
2022-10-02T05:07:48.630Z,8.00
2022-10-02T05:08:48.635Z,12.00
2022-10-02T05:09:48.484Z,12.00
2022-10-02T05:10:48.553Z,16.00
2022-10-02T05:11:48.674Z,16.00
2022-10-02T05:12:48.568Z,20.00
2022-10-02T05:13:48.582Z,24.00
2022-10-02T05:14:48.561Z,28.00
2022-10-02T05:15:48.554Z,32.00
2022-10-02T05:16:48.501Z,36.00
2022-10-02T05:17:48.474Z,40.00
2022-10-02T05:18:48.499Z,52.00
2022-10-02T05:19:48.547Z,56.00
2022-10-02T05:20:48.503Z,64.00
2022-10-02T05:21:48.213Z,68.00
2022-10-02T05:22:48.448Z,76.00
2022-10-02T05:23:48.478Z,92.00
2022-10-02T05:24:48.476Z,80.00
2022-10-02T05:25:48.279Z,84.00
2022-10-02T05:26:48.384Z,80.00
2022-10-02T05:27:48.521Z,80.00
2022-10-02T05:28:50.136Z,84.00
2022-10-02T05:29:54.205Z,96.00
2022-10-02T05:30:54.907Z,104.00
2022-10-02T05:31:54.952Z,100.00
2022-10-02T05:32:48.353Z,92.00
2022-10-02T05:33:48.669Z,92.00
2022-10-02T05:34:48.272Z,76.00
2022-10-02T05:35:48.515Z,84.00
2022-10-02T05:36:48.361Z,148.00
2022-10-02T05:37:48.067Z,200.00
2022-10-02T05:38:48.157Z,208.00
2022-10-02T05:39:47.869Z,236.00
2022-10-02T05:40:48.318Z,268.00
2022-10-02T05:41:48.832Z,336.00
2022-10-02T05:42:48.782Z,400.00
2022-10-02T05:43:48.189Z,472.00
2022-10-02T05:44:48.123Z,564.00
2022-10-02T05:45:48.317Z,608.00
2022-10-02T05:46:48.230Z,640.00
2022-10-02T05:47:48.148Z,660.00
2022-10-02T05:48:48.145Z,704.00
2022-10-02T05:49:48.132Z,732.00
2022-10-02T05:50:48.147Z,804.00
2022-10-02T05:51:47.997Z,888.00
2022-10-02T05:52:48.001Z,928.00
2022-10-02T05:53:48.108Z,976.00
2022-10-02T05:54:47.933Z,1016.00
2022-10-02T05:55:47.966Z,1044.00
2022-10-02T05:56:47.926Z,1084.00
2022-10-02T05:57:48.155Z,1132.00
2022-10-02T05:58:48.142Z,1152.00
2022-10-02T05:59:48.108Z,1196.00
2022-10-02T06:00:47.896Z,1280.00
2022-10-02T06:01:47.999Z,1288.00
2022-10-02T06:02:47.993Z,1340.00
2022-10-02T06:03:47.815Z,1400.00
2022-10-02T06:04:47.970Z,1476.00
2022-10-02T06:05:47.988Z,1504.00
2022-10-02T06:06:47.912Z,1520.00
2022-10-02T06:07:47.950Z,1568.00
2022-10-02T06:08:47.881Z,1616.00
2022-10-02T06:09:47.867Z,1684.00
2022-10-02T06:10:47.891Z,1756.00
2022-10-02T06:11:47.845Z,1828.00
2022-10-02T06:12:48.991Z,1928.00
2022-10-02T06:13:47.816Z,2084.00
2022-10-02T06:14:50.702Z,2284.00
2022-10-02T06:15:47.848Z,2504.00
2022-10-02T06:16:47.965Z,2620.00
2022-10-02T06:17:47.843Z,2880.00
2022-10-02T06:18:47.760Z,3060.00
2022-10-02T06:19:47.867Z,3576.00
2022-10-02T06:20:47.779Z,4004.00
2022-10-02T06:21:47.943Z,4156.00
2022-10-02T06:22:47.333Z,3824.00
2022-10-02T06:23:47.362Z,3536.00
2022-10-02T06:24:47.336Z,3508.00
2022-10-02T06:25:47.358Z,3332.00
2022-10-02T06:26:47.303Z,3172.00
2022-10-02T06:27:47.387Z,3080.00
2022-10-02T06:28:47.296Z,2980.00
2022-10-02T06:29:47.293Z,3212.00
2022-10-02T06:30:47.263Z,3964.00
2022-10-02T06:31:47.378Z,5232.00
2022-10-02T06:32:47.265Z,6376.00
2022-10-02T06:33:47.212Z,6268.00
2022-10-02T06:34:48.263Z,6028.00
2022-10-02T06:35:47.297Z,4280.00
2022-10-02T06:36:47.186Z,3744.00
2022-10-02T06:37:47.178Z,3888.00
2022-10-02T06:38:47.182Z,4092.00
2022-10-02T06:39:47.265Z,3940.00
2022-10-02T06:40:47.140Z,3916.00
2022-10-02T06:41:47.181Z,3800.00
2022-10-02T06:42:47.145Z,3552.00
2022-10-02T06:43:47.679Z,3668.00
2022-10-02T06:44:47.155Z,3908.00
2022-10-02T06:45:47.148Z,4136.00
2022-10-02T06:46:51.166Z,4484.00
2022-10-02T06:47:47.115Z,4972.00
2022-10-02T06:48:47.048Z,5240.00
2022-10-02T06:49:47.048Z,4988.00
2022-10-02T06:50:47.048Z,4276.00
2022-10-02T06:51:47.021Z,3972.00
2022-10-02T06:52:47.045Z,4444.00
2022-10-02T06:53:47.050Z,5300.00
2022-10-02T06:54:46.981Z,6432.00
2022-10-02T06:55:46.993Z,6876.00
2022-10-02T06:56:46.994Z,6816.00
2022-10-02T06:57:46.955Z,6104.00
2022-10-02T06:58:46.963Z,5636.00
2022-10-02T06:59:47.009Z,5348.00
2022-10-02T07:00:47.058Z,5244.00
2022-10-02T07:01:47.054Z,5756.00
2022-10-02T07:02:46.891Z,6508.00
2022-10-02T07:03:46.892Z,6908.00
2022-10-02T07:04:46.854Z,6168.00
2022-10-02T07:05:46.930Z,5104.00
2022-10-02T07:06:46.844Z,4176.00
2022-10-02T07:07:46.861Z,3980.00
2022-10-02T07:08:46.833Z,3888.00
2022-10-02T07:09:46.817Z,3696.00
2022-10-02T07:10:46.794Z,3748.00
2022-10-02T07:11:46.874Z,4124.00
2022-10-02T07:12:47.755Z,4204.00
2022-10-02T07:13:46.813Z,4004.00
2022-10-02T07:14:46.780Z,3952.00
2022-10-02T07:15:46.751Z,3844.00
2022-10-02T07:16:46.769Z,3972.00
2022-10-02T07:17:46.818Z,4104.00
2022-10-02T07:18:46.728Z,4696.00
2022-10-02T07:19:46.688Z,5740.00
2022-10-02T07:20:46.683Z,5964.00
2022-10-02T07:21:46.698Z,5756.00
2022-10-02T07:22:46.728Z,6504.00
2022-10-02T07:23:46.763Z,6476.00
2022-10-02T07:24:46.675Z,5620.00
2022-10-02T07:25:46.662Z,5388.00
2022-10-02T07:26:46.738Z,5740.00
2022-10-02T07:27:46.628Z,6580.00
2022-10-02T07:28:46.603Z,7560.00
2022-10-02T07:29:46.647Z,7784.00
2022-10-02T07:30:46.626Z,8424.00
2022-10-02T07:31:48.436Z,6632.00
2022-10-02T07:32:46.620Z,5392.00
2022-10-02T07:33:46.615Z,6320.00
2022-10-02T07:34:47.509Z,5300.00
2022-10-02T07:35:46.560Z,6244.00
2022-10-02T07:36:46.549Z,5868.00
2022-10-02T07:37:46.535Z,5612.00
2022-10-02T07:38:46.770Z,4188.00
2022-10-02T07:39:47.262Z,3984.00
2022-10-02T07:40:46.459Z,4344.00
2022-10-02T07:41:46.872Z,4892.00
2022-10-02T07:42:46.434Z,4664.00
2022-10-02T07:43:46.436Z,4512.00
2022-10-02T07:44:46.432Z,4624.00
2022-10-02T07:45:46.452Z,4836.00
2022-10-02T07:46:46.415Z,5040.00
2022-10-02T07:47:46.475Z,5356.00
2022-10-02T07:48:46.518Z,5800.00
2022-10-02T07:49:46.444Z,6492.00
2022-10-02T07:50:46.390Z,7700.00
2022-10-02T07:51:46.349Z,9424.00
2022-10-02T07:52:46.340Z,10888.00
2022-10-02T07:53:46.446Z,12240.00
2022-10-02T07:54:46.337Z,12288.00
2022-10-02T07:55:46.340Z,11588.00
2022-10-02T07:56:46.300Z,9252.00
2022-10-02T07:57:46.295Z,8260.00
2022-10-02T07:58:46.284Z,6932.00
2022-10-02T07:59:46.306Z,5612.00
2022-10-02T08:00:46.282Z,4824.00
2022-10-02T08:01:46.284Z,4636.00
2022-10-02T08:02:46.322Z,4968.00
2022-10-02T08:03:46.193Z,4832.00
2022-10-02T08:04:46.188Z,4760.00
2022-10-02T08:05:46.899Z,4212.00
2022-10-02T08:06:46.218Z,3832.00
2022-10-02T08:07:46.162Z,3508.00
2022-10-02T08:08:46.361Z,3540.00
2022-10-02T08:09:46.166Z,3712.00
2022-10-02T08:10:46.185Z,3876.00
2022-10-02T08:11:49.513Z,4044.00
2022-10-02T08:12:46.153Z,4044.00
2022-10-02T08:13:46.909Z,4260.00
2022-10-02T08:14:46.097Z,4408.00
2022-10-02T08:15:47.131Z,4580.00
2022-10-02T08:16:46.095Z,4800.00
2022-10-02T08:17:46.872Z,5004.00
2022-10-02T08:18:46.074Z,5188.00
2022-10-02T08:19:46.028Z,5120.00
2022-10-02T08:20:46.031Z,4824.00
2022-10-02T08:21:46.048Z,4756.00
2022-10-02T08:22:46.025Z,4660.00
2022-10-02T08:23:46.123Z,4628.00
2022-10-02T08:24:47.002Z,4604.00
2022-10-02T08:25:46.003Z,4636.00
2022-10-02T08:26:45.944Z,4652.00
2022-10-02T08:27:46.064Z,4644.00
2022-10-02T08:28:45.938Z,4736.00
2022-10-02T08:29:46.027Z,4828.00
2022-10-02T08:30:45.891Z,4976.00
2022-10-02T08:31:46.031Z,5092.00
2022-10-02T08:32:45.918Z,5412.00
2022-10-02T08:33:45.956Z,4968.00
2022-10-02T08:34:45.939Z,4808.00
2022-10-02T08:35:46.001Z,4856.00
2022-10-02T08:36:45.863Z,4960.00
2022-10-02T08:37:45.950Z,5080.00
2022-10-02T08:38:46.477Z,4976.00
2022-10-02T08:39:46.020Z,5124.00
2022-10-02T08:40:46.050Z,5232.00
2022-10-02T08:41:45.989Z,5272.00
2022-10-02T08:42:45.971Z,5708.00
2022-10-02T08:43:46.169Z,6724.00
2022-10-02T08:44:45.969Z,8856.00
2022-10-02T08:45:45.895Z,10536.00
2022-10-02T08:46:45.765Z,9272.00
2022-10-02T08:47:45.756Z,9176.00
2022-10-02T08:48:45.844Z,7744.00
2022-10-02T08:49:45.804Z,7448.00
2022-10-02T08:50:45.686Z,7624.00
2022-10-02T08:51:45.696Z,6548.00
2022-10-02T08:52:45.737Z,4816.00
2022-10-02T08:53:46.389Z,4924.00
2022-10-02T08:54:45.627Z,5156.00
2022-10-02T08:55:45.722Z,5232.00
2022-10-02T08:56:45.657Z,5440.00
2022-10-02T08:57:45.722Z,5260.00
2022-10-02T08:58:45.659Z,5348.00
2022-10-02T08:59:45.873Z,5500.00
2022-10-02T09:00:45.612Z,5952.00
2022-10-02T09:01:45.601Z,6528.00
2022-10-02T09:02:45.642Z,7428.00
2022-10-02T09:03:45.571Z,6180.00
2022-10-02T09:04:45.593Z,6492.00
2022-10-02T09:05:46.044Z,6548.00
2022-10-02T09:06:45.511Z,7120.00
2022-10-02T09:07:45.577Z,7748.00
2022-10-02T09:08:45.944Z,7860.00
2022-10-02T09:09:45.526Z,7604.00
2022-10-02T09:10:45.542Z,8024.00
2022-10-02T09:11:45.904Z,8096.00
2022-10-02T09:12:45.614Z,8212.00
2022-10-02T09:13:45.944Z,8764.00
2022-10-02T09:14:45.771Z,9412.00
2022-10-02T09:15:45.785Z,8992.00
2022-10-02T09:16:45.926Z,7348.00
2022-10-02T09:17:45.768Z,5848.00
2022-10-02T09:18:45.869Z,5228.00
2022-10-02T09:19:45.536Z,4660.00
2022-10-02T09:20:45.644Z,4840.00
2022-10-02T09:21:46.234Z,5060.00
2022-10-02T09:22:46.036Z,5360.00
2022-10-02T09:23:46.540Z,5536.00
2022-10-02T09:24:45.740Z,5844.00
2022-10-02T09:25:46.198Z,6460.00
2022-10-02T09:26:45.301Z,7288.00
2022-10-02T09:27:45.328Z,7556.00
2022-10-02T09:28:45.309Z,8020.00
2022-10-02T09:29:45.355Z,6416.00
2022-10-02T09:30:45.236Z,5708.00
2022-10-02T09:31:45.451Z,5836.00
2022-10-02T09:32:45.207Z,6292.00
2022-10-02T09:33:45.215Z,7396.00
2022-10-02T09:34:45.270Z,7000.00
2022-10-02T09:35:45.186Z,6024.00
2022-10-02T09:36:45.225Z,6620.00
2022-10-02T09:37:45.165Z,6012.00
2022-10-02T09:38:45.164Z,6356.00
2022-10-02T09:39:45.147Z,6920.00
2022-10-02T09:40:45.249Z,7368.00
2022-10-02T09:41:45.891Z,9740.00
2022-10-02T09:42:46.232Z,9576.00
2022-10-02T09:43:45.356Z,7840.00
2022-10-02T09:44:46.333Z,6788.00
2022-10-02T09:45:45.141Z,7576.00
2022-10-02T09:46:45.265Z,6516.00
2022-10-02T09:47:45.058Z,5504.00
2022-10-02T09:48:45.040Z,5380.00
2022-10-02T09:49:45.070Z,5388.00
2022-10-02T09:50:45.228Z,5304.00
2022-10-02T09:51:45.173Z,5320.00
2022-10-02T09:52:45.226Z,5396.00
2022-10-02T09:53:45.193Z,5492.00
2022-10-02T09:54:45.194Z,5912.00
2022-10-02T09:55:45.150Z,6636.00
2022-10-02T09:56:45.151Z,7064.00
2022-10-02T09:57:45.211Z,5712.00
2022-10-02T09:58:45.236Z,6124.00
2022-10-02T09:59:45.176Z,5884.00
2022-10-02T10:00:45.312Z,6096.00
2022-10-02T10:01:45.261Z,6396.00
2022-10-02T10:02:45.352Z,6884.00
2022-10-02T10:03:45.630Z,7548.00
2022-10-02T10:05:04.533Z,8216.00
2022-10-02T10:05:45.210Z,8248.00
2022-10-02T10:06:45.302Z,7384.00
2022-10-02T10:07:45.165Z,6160.00
2022-10-02T10:08:45.164Z,5452.00
2022-10-02T10:09:45.085Z,5388.00
2022-10-02T10:10:45.339Z,5396.00
2022-10-02T10:11:45.227Z,5416.00
2022-10-02T10:12:45.104Z,5428.00
2022-10-02T10:13:45.015Z,5436.00
2022-10-02T10:14:45.089Z,5484.00
2022-10-02T10:15:45.023Z,5532.00
2022-10-02T10:16:45.081Z,5564.00
2022-10-02T10:17:44.860Z,5568.00
2022-10-02T10:18:44.765Z,5624.00
2022-10-02T10:19:44.828Z,5664.00
2022-10-02T10:20:45.124Z,5720.00
2022-10-02T10:21:44.961Z,5792.00
2022-10-02T10:22:45.512Z,5932.00
2022-10-02T10:23:44.786Z,6144.00
2022-10-02T10:24:44.790Z,6500.00
2022-10-02T10:25:44.970Z,7156.00
2022-10-02T10:26:44.623Z,7252.00
2022-10-02T10:27:44.726Z,7064.00
2022-10-02T10:28:44.664Z,8316.00
2022-10-02T10:29:44.926Z,8096.00
2022-10-02T10:30:45.119Z,8260.00
2022-10-02T10:31:44.809Z,9184.00
2022-10-02T10:32:44.943Z,10324.00
2022-10-02T10:33:45.029Z,10208.00
2022-10-02T10:34:45.952Z,10100.00
2022-10-02T10:35:44.811Z,10788.00
2022-10-02T10:36:46.814Z,11432.00
2022-10-02T10:37:44.781Z,11468.00
2022-10-02T10:38:44.917Z,13116.00
2022-10-02T10:39:44.783Z,14800.00
2022-10-02T10:40:45.849Z,15820.00
2022-10-02T10:41:44.865Z,15616.00
2022-10-02T10:43:05.962Z,16220.00
2022-10-02T10:43:44.470Z,15100.00
2022-10-02T10:44:44.724Z,16052.00
2022-10-02T10:45:45.615Z,14108.00
2022-10-02T10:46:44.808Z,13888.00
2022-10-02T10:47:44.636Z,13752.00
2022-10-02T10:48:49.226Z,14184.00
2022-10-02T10:49:44.640Z,16744.00
2022-10-02T10:50:44.632Z,19456.00
2022-10-02T10:51:45.137Z,16820.00
2022-10-02T10:52:44.793Z,12580.00
2022-10-02T10:53:44.426Z,11336.00
2022-10-02T10:54:45.372Z,12236.00
2022-10-02T10:55:44.839Z,7200.00
2022-10-02T10:56:44.656Z,5996.00
2022-10-02T10:57:44.460Z,5980.00
2022-10-02T10:58:44.721Z,6828.00
2022-10-02T10:59:44.859Z,8196.00
2022-10-02T11:00:44.457Z,9148.00
2022-10-02T11:01:44.438Z,7916.00
2022-10-02T11:02:44.488Z,6876.00
2022-10-02T11:03:44.190Z,6620.00
2022-10-02T11:04:44.343Z,7800.00
2022-10-02T11:05:44.370Z,7460.00
2022-10-02T11:06:46.239Z,8336.00
2022-10-02T11:07:44.264Z,8596.00
2022-10-02T11:08:44.194Z,10012.00
2022-10-02T11:09:44.355Z,12008.00
2022-10-02T11:10:44.166Z,11416.00
2022-10-02T11:11:44.942Z,9760.00
2022-10-02T11:12:44.133Z,9880.00
2022-10-02T11:13:44.243Z,10332.00
2022-10-02T11:14:44.071Z,10244.00
2022-10-02T11:15:44.246Z,9100.00
2022-10-02T11:16:44.442Z,8392.00
2022-10-02T11:17:44.185Z,10116.00
2022-10-02T11:18:44.094Z,11832.00
2022-10-02T11:19:44.431Z,12484.00
2022-10-02T11:20:44.019Z,11296.00
2022-10-02T11:21:44.076Z,12836.00
2022-10-02T11:22:44.292Z,14452.00
2022-10-02T11:23:44.101Z,13440.00
2022-10-02T11:24:44.013Z,11592.00
2022-10-02T11:25:44.003Z,11212.00
2022-10-02T11:26:44.023Z,10596.00
2022-10-02T11:27:44.024Z,12600.00
2022-10-02T11:28:44.010Z,12300.00
2022-10-02T11:29:44.412Z,11656.00
2022-10-02T11:30:45.133Z,7996.00
2022-10-02T11:31:44.056Z,7544.00
2022-10-02T11:32:43.975Z,7944.00
2022-10-02T11:33:43.880Z,8620.00
2022-10-02T11:34:43.925Z,10840.00
2022-10-02T11:35:44.037Z,9428.00
2022-10-02T11:36:43.945Z,8040.00
2022-10-02T11:37:43.956Z,8572.00
2022-10-02T11:38:44.044Z,9484.00
2022-10-02T11:39:43.935Z,9308.00
2022-10-02T11:40:44.030Z,8076.00
2022-10-02T11:41:43.975Z,8236.00
2022-10-02T11:42:43.771Z,8856.00
2022-10-02T11:43:44.265Z,10036.00
2022-10-02T11:44:43.816Z,11500.00
2022-10-02T11:45:43.999Z,12268.00
2022-10-02T11:46:43.954Z,13692.00
2022-10-02T11:47:43.885Z,12940.00
2022-10-02T11:48:43.769Z,11508.00
2022-10-02T11:49:43.946Z,9576.00
2022-10-02T11:50:43.991Z,9524.00
2022-10-02T11:51:43.715Z,10500.00
2022-10-02T11:52:48.161Z,11624.00
2022-10-02T11:53:43.917Z,12716.00
2022-10-02T11:54:43.889Z,14380.00
2022-10-02T11:55:43.733Z,13068.00
2022-10-02T11:56:43.925Z,13820.00
2022-10-02T11:57:43.773Z,15584.00
2022-10-02T11:58:43.973Z,16792.00
2022-10-02T11:59:43.756Z,16956.00
2022-10-02T12:00:43.810Z,21760.00
2022-10-02T12:01:43.976Z,19968.00
2022-10-02T12:02:44.186Z,18528.00
2022-10-02T12:03:44.585Z,16056.00
2022-10-02T12:04:43.877Z,15680.00
2022-10-02T12:05:43.732Z,15956.00
2022-10-02T12:06:43.755Z,17824.00
2022-10-02T12:07:43.698Z,19488.00
2022-10-02T12:08:43.722Z,19712.00
2022-10-02T12:09:43.717Z,16228.00
2022-10-02T12:10:43.537Z,13088.00
2022-10-02T12:11:43.562Z,9992.00
2022-10-02T12:12:43.440Z,8084.00
2022-10-02T12:13:43.434Z,10464.00
2022-10-02T12:14:43.797Z,12112.00
2022-10-02T12:15:43.420Z,12280.00
2022-10-02T12:16:43.481Z,12408.00
2022-10-02T12:17:43.363Z,12728.00
2022-10-02T12:18:43.941Z,12400.00
2022-10-02T12:19:43.430Z,11700.00
2022-10-02T12:20:43.334Z,11032.00
2022-10-02T12:21:43.344Z,10572.00
2022-10-02T12:22:43.381Z,10784.00
2022-10-02T12:23:43.356Z,11728.00
2022-10-02T12:24:43.309Z,34624.00
2022-10-02T12:25:43.903Z,60000.00
2022-10-02T12:26:43.316Z,64000.00
2022-10-02T12:27:43.263Z,66784.00
2022-10-02T12:28:43.407Z,68768.00
2022-10-02T12:29:49.237Z,70176.00
2022-10-02T12:30:43.219Z,70528.00
2022-10-02T12:31:43.305Z,69120.00
2022-10-02T12:32:43.200Z,69952.00
2022-10-02T12:33:43.189Z,73760.00
2022-10-02T12:34:43.214Z,77376.00
2022-10-02T12:35:43.241Z,64672.00
2022-10-02T12:36:43.180Z,81792.00
2022-10-02T12:37:43.165Z,82720.00
2022-10-02T12:38:43.122Z,79680.00
2022-10-02T12:39:43.160Z,81280.00
2022-10-02T12:40:43.128Z,82720.00